Beltrami, Minnesota
Current Conditions -  °F | °C
As of 12:35 AM on Friday 19 Dec 2014 (Local Time) from KCKN Reporting Station
Broken Clouds Broken Clouds  
Wind Chill: 10°   Ceiling: 1600
Heat Index: 21°   Visibility: 7mi
Dew Point: 19°   Wind: 10mph
Humidity: 93%   Direction: 170°S
Pressure: 30.16"   Gusts: NA
Location:  47.54°N, 96.53°W
Report Text: KCKN 190635Z AUTO 17009KT 7SM BKN016 M06/M07 A3016 RMK AO2
Loading
Personal Weather Stations






























Interactive Weather Map New forecast layout! Learn more

10-Day Weather Forecast

Advertisements
Track Severe Weather on mobile